Roberts, Wisconsin
Current Conditions -  °F | °C
As of 1:35 PM on Friday 24 Oct 2014 (Local Time) from KRNH Reporting Station
Overcast Overcast  
Wind Chill: 59°   Ceiling: 1800
Heat Index: 59°   Visibility: 10mi
Dew Point: 53°   Wind: 9mph
Humidity: 80%   Direction: 200°SSW
Pressure: 29.86"   Gusts: NA
Location:  44.98°N, 92.56°W
Report Text: KRNH 241835Z AUTO 20008KT 10SM OVC018 15/12 A2986 RMK AO2 T01520117
Loading
Personal Weather Stations






























Interactive Weather Map
Tropical Storm Tracking
New forecast layout! Learn more

10-Day Weather Forecast

Advertisements
Track Severe Weather on mobile